Time;durP1;ratioP1;P1;durP2;ratioP2;P2;SDS_P1;SDS_P2;PMS_P1;PMS_P2;Temp;Humidity;BMP_temperature;BMP_pressure;BME280_temperature;BME280_humidity;BME280_pressure;Samples;Min_cycle;Max_cycle;Signal;HPM_P1;HPM_P2
2023/06/02 00:00:01;;;;;;;6.25;3.95;;;;;;;;;;4998113;28;20026;-28
2023/06/02 00:02:29;;;;;;;11.02;4.45;;;;;;;;;;4980353;28;20037;-26
2023/06/02 00:04:59;;;;;;;4.57;3.45;;;;;;;;;;4997740;28;20045;-26
2023/06/02 00:07:28;;;;;;;4.53;3.40;;;;;;;;;;4998001;28;20540;-25
2023/06/02 00:09:55;;;;;;;5.43;4.13;;;;;;;;;;4997666;28;20060;-27
2023/06/02 00:12:22;;;;;;;6.63;3.40;;;;;;;;;;4997473;28;20034;-27
2023/06/02 00:14:48;;;;;;;4.88;3.88;;;;;;;;;;4997772;28;20081;-26
2023/06/02 00:17:16;;;;;;;4.78;3.90;;;;;;;;;;4997553;28;20033;-27
2023/06/02 00:19:42;;;;;;;4.55;4.07;;;;;;;;;;4997791;28;20015;-27
2023/06/02 00:22:15;;;;;;;4.70;3.58;;;;;;;;;;4997371;28;20018;-27
2023/06/02 00:24:42;;;;;;;8.68;3.10;;;;;;;;;;4980270;28;20093;-28
2023/06/02 00:27:08;;;;;;;4.47;3.25;;;;;;;;;;4997270;28;20038;-24
2023/06/02 00:29:34;;;;;;;4.07;3.70;;;;;;;;;;4997314;28;20365;-27
2023/06/02 00:32:00;;;;;;;6.13;3.67;;;;;;;;;;4996022;28;20030;-26
2023/06/02 00:34:26;;;;;;;6.38;3.88;;;;;;;;;;4997367;28;20113;-24
2023/06/02 00:36:52;;;;;;;4.13;3.65;;;;;;;;;;4979982;28;20019;-27
2023/06/02 00:39:18;;;;;;;5.47;4.13;;;;;;;;;;4997169;28;20046;-25
2023/06/02 00:41:45;;;;;;;4.80;3.67;;;;;;;;;;4997404;28;20340;-28
2023/06/02 00:44:11;;;;;;;6.43;3.85;;;;;;;;;;4996969;28;20026;-26
2023/06/02 00:46:37;;;;;;;11.48;5.72;;;;;;;;;;4996984;28;20104;-25
2023/06/02 00:49:04;;;;;;;4.97;3.85;;;;;;;;;;4997212;28;20026;-26
2023/06/02 00:51:31;;;;;;;3.55;3.22;;;;;;;;;;4979747;28;20030;-27
2023/06/02 00:53:57;;;;;;;5.43;3.97;;;;;;;;;;4996639;28;20037;-26
2023/06/02 00:56:24;;;;;;;5.63;3.38;;;;;;;;;;4996854;28;20065;-25
2023/06/02 00:58:50;;;;;;;5.68;4.20;;;;;;;;;;4996731;28;20030;-27
2023/06/02 01:01:18;;;;;;;7.47;3.75;;;;;;;;;;4996962;28;20037;-26
2023/06/02 01:03:45;;;;;;;5.38;3.67;;;;;;;;;;4996486;28;20132;-27
2023/06/02 01:06:13;;;;;;;5.30;3.30;;;;;;;;;;4996669;28;20050;-26
2023/06/02 01:08:40;;;;;;;5.03;3.42;;;;;;;;;;4996560;28;20058;-27
2023/06/02 01:11:07;;;;;;;5.93;4.45;;;;;;;;;;4996753;28;20088;-24
2023/06/02 01:13:34;;;;;;;7.07;3.92;;;;;;;;;;4996434;28;20038;-28
2023/06/02 01:16:00;;;;;;;5.18;4.03;;;;;;;;;;4996590;28;20049;-27
2023/06/02 01:18:29;;;;;;;3.97;3.42;;;;;;;;;;4996407;28;20025;-27
2023/06/02 01:21:01;;;;;;;4.05;3.70;;;;;;;;;;4996536;28;20034;-26
2023/06/02 01:23:33;;;;;;;6.13;3.75;;;;;;;;;;4996231;28;20081;-27
2023/06/02 01:26:00;;;;;;;5.07;3.80;;;;;;;;;;4996214;28;20023;-27
2023/06/02 01:28:27;;;;;;;5.03;4.63;;;;;;;;;;4996226;28;20462;-28
2023/06/02 01:31:15;;;;;;;5.10;3.72;;;;;;;;;;4996404;28;20049;-24
2023/06/02 01:33:54;;;;;;;7.03;3.90;;;;;;;;;;4996357;28;20029;-25
2023/06/02 01:36:22;;;;;;;8.00;4.18;;;;;;;;;;4996118;28;20026;-28
2023/06/02 01:38:49;;;;;;;3.40;3.20;;;;;;;;;;4996258;28;20092;-27
2023/06/02 01:41:16;;;;;;;4.47;3.60;;;;;;;;;;4978771;28;20485;-26
2023/06/02 01:43:42;;;;;;;5.50;3.80;;;;;;;;;;4995458;28;20030;-23
2023/06/02 01:46:09;;;;;;;4.03;3.55;;;;;;;;;;4996138;28;20046;-27
2023/06/02 01:48:35;;;;;;;5.13;3.67;;;;;;;;;;4978694;28;20030;-27
2023/06/02 01:51:02;;;;;;;4.97;3.95;;;;;;;;;;4996117;28;20406;-27
2023/06/02 01:53:28;;;;;;;5.55;3.10;;;;;;;;;;4995639;28;20056;-26
2023/06/02 01:55:54;;;;;;;9.65;4.07;;;;;;;;;;4995594;28;20030;-27
2023/06/02 01:58:21;;;;;;;3.45;3.00;;;;;;;;;;4995711;28;20030;-27
2023/06/02 02:00:47;;;;;;;4.20;3.78;;;;;;;;;;4995883;28;20022;-27
2023/06/02 02:03:14;;;;;;;5.25;3.70;;;;;;;;;;4995468;28;20034;-27
2023/06/02 02:05:40;;;;;;;3.45;3.15;;;;;;;;;;4995591;28;20154;-25
2023/06/02 02:08:07;;;;;;;4.07;3.63;;;;;;;;;;4995539;28;20026;-29
2023/06/02 02:10:34;;;;;;;4.45;3.40;;;;;;;;;;4995758;28;20026;-27
2023/06/02 02:13:00;;;;;;;4.85;3.45;;;;;;;;;;4995368;28;20057;-26
2023/06/02 02:15:27;;;;;;;4.05;3.65;;;;;;;;;;4995355;28;20022;-26
2023/06/02 02:17:56;;;;;;;6.15;4.07;;;;;;;;;;4995633;28;20026;-29
2023/06/02 02:20:23;;;;;;;4.13;3.72;;;;;;;;;;4995332;28;20018;-25
2023/06/02 02:22:49;;;;;;;4.22;3.92;;;;;;;;;;4995496;28;20041;-23
2023/06/02 02:25:16;;;;;;;3.20;3.00;;;;;;;;;;4995376;28;20026;-26
2023/06/02 02:27:42;;;;;;;3.38;3.17;;;;;;;;;;4995288;28;20027;-24
2023/06/02 02:30:08;;;;;;;6.28;3.30;;;;;;;;;;4995289;28;20448;-26
2023/06/02 02:32:36;;;;;;;6.60;3.90;;;;;;;;;;4995472;28;20099;-25
2023/06/02 02:35:03;;;;;;;6.03;4.55;;;;;;;;;;4995193;28;20030;-26
2023/06/02 02:37:29;;;;;;;8.07;4.30;;;;;;;;;;4995223;28;20354;-26
2023/06/02 02:39:55;;;;;;;4.28;3.83;;;;;;;;;;4995164;28;20499;-25
2023/06/02 02:42:21;;;;;;;4.13;3.72;;;;;;;;;;4995124;28;20105;-27
2023/06/02 02:44:47;;;;;;;3.90;3.60;;;;;;;;;;4995133;28;20081;-26
2023/06/02 02:47:14;;;;;;;3.70;3.40;;;;;;;;;;4995384;28;20037;-26
2023/06/02 02:49:40;;;;;;;4.70;3.22;;;;;;;;;;4995137;28;20101;-26
2023/06/02 02:52:06;;;;;;;4.03;3.42;;;;;;;;;;4995064;28;20034;-27
2023/06/02 02:54:32;;;;;;;4.07;3.67;;;;;;;;;;4995087;28;20065;-29
2023/06/02 02:56:58;;;;;;;3.00;2.72;;;;;;;;;;4998531;28;20050;-26
2023/06/02 02:59:25;;;;;;;3.50;3.20;;;;;;;;;;4999319;28;20474;-28
2023/06/02 03:01:52;;;;;;;4.18;3.33;;;;;;;;;;4998960;28;20022;-26
2023/06/02 03:04:21;;;;;;;3.78;3.50;;;;;;;;;;4978194;28;20047;-27
2023/06/02 03:06:49;;;;;;;6.75;4.10;;;;;;;;;;4980224;28;20023;-28
2023/06/02 03:09:18;;;;;;;6.43;3.55;;;;;;;;;;4978382;28;20031;-26
2023/06/02 03:11:45;;;;;;;4.50;3.22;;;;;;;;;;4979314;28;20084;-27
2023/06/02 03:14:11;;;;;;;4.10;3.45;;;;;;;;;;4979189;28;20046;-27
2023/06/02 03:16:41;;;;;;;4.72;3.90;;;;;;;;;;4979192;28;20029;-25
2023/06/02 03:19:10;;;;;;;5.57;3.90;;;;;;;;;;4979767;28;20046;-25
2023/06/02 03:21:45;;;;;;;4.30;3.90;;;;;;;;;;4978149;28;20042;-27
2023/06/02 03:24:20;;;;;;;5.22;4.25;;;;;;;;;;4979022;28;20034;-27
2023/06/02 03:26:47;;;;;;;3.70;3.42;;;;;;;;;;4978117;28;20450;-27
2023/06/02 03:29:13;;;;;;;4.25;3.15;;;;;;;;;;4978982;28;20110;-29
2023/06/02 03:31:41;;;;;;;4.25;3.70;;;;;;;;;;4978944;28;20410;-26
2023/06/02 03:34:07;;;;;;;3.75;3.45;;;;;;;;;;4978662;28;20449;-27
2023/06/02 03:36:37;;;;;;;4.90;3.33;;;;;;;;;;4978850;28;20027;-26
2023/06/02 03:39:07;;;;;;;3.75;3.45;;;;;;;;;;4979010;28;20046;-25
2023/06/02 03:41:34;;;;;;;3.75;3.42;;;;;;;;;;4978814;28;20098;-27
2023/06/02 03:44:01;;;;;;;3.72;3.42;;;;;;;;;;4978911;28;20331;-28
2023/06/02 03:46:27;;;;;;;3.70;3.40;;;;;;;;;;4978645;28;20023;-24
2023/06/02 03:48:53;;;;;;;6.20;3.85;;;;;;;;;;4978863;28;20023;-25
2023/06/02 03:51:20;;;;;;;3.95;3.65;;;;;;;;;;4977615;28;20027;-27
2023/06/02 03:53:46;;;;;;;8.75;3.38;;;;;;;;;;4977436;28;20023;-28
2023/06/02 03:56:13;;;;;;;3.80;3.50;;;;;;;;;;4977341;28;20407;-27
2023/06/02 03:58:39;;;;;;;4.53;3.85;;;;;;;;;;4978655;28;20030;-26
2023/06/02 04:01:05;;;;;;;8.02;5.55;;;;;;;;;;4978319;28;20030;-26
2023/06/02 04:03:36;;;;;;;4.57;3.92;;;;;;;;;;4986136;28;20038;-26
2023/06/02 04:06:04;;;;;;;4.63;3.53;;;;;;;;;;4997307;28;20057;-24
2023/06/02 04:08:30;;;;;;;5.50;3.95;;;;;;;;;;4997801;28;20033;-27
2023/06/02 04:10:56;;;;;;;4.78;3.80;;;;;;;;;;4997611;28;20445;-26
2023/06/02 04:13:22;;;;;;;8.65;4.43;;;;;;;;;;4997318;28;20046;-27
2023/06/02 04:15:48;;;;;;;3.42;3.17;;;;;;;;;;4997370;28;20026;-24
2023/06/02 04:18:14;;;;;;;4.25;3.35;;;;;;;;;;4997550;28;20323;-26
2023/06/02 04:20:40;;;;;;;4.10;3.70;;;;;;;;;;4997631;28;20029;-25
2023/06/02 04:23:07;;;;;;;3.75;3.33;;;;;;;;;;4997368;28;20022;-25
2023/06/02 04:25:33;;;;;;;4.28;3.47;;;;;;;;;;4980177;28;20034;-25
2023/06/02 04:27:59;;;;;;;9.32;3.65;;;;;;;;;;4996993;28;20155;-26
2023/06/02 04:30:26;;;;;;;5.95;3.90;;;;;;;;;;4997495;28;20063;-26
2023/06/02 04:32:52;;;;;;;3.83;3.10;;;;;;;;;;4997251;28;20433;-25
2023/06/02 04:35:18;;;;;;;6.15;3.60;;;;;;;;;;4997247;28;20026;-27
2023/06/02 04:37:46;;;;;;;4.85;3.70;;;;;;;;;;4997137;28;20101;-26
2023/06/02 04:40:13;;;;;;;5.22;4.82;;;;;;;;;;4979586;28;20026;-26
2023/06/02 04:42:39;;;;;;;5.32;4.05;;;;;;;;;;4997135;28;20505;-26
2023/06/02 04:45:07;;;;;;;4.57;3.58;;;;;;;;;;4997218;28;20066;-27
2023/06/02 04:47:33;;;;;;;4.68;3.47;;;;;;;;;;4997021;28;20465;-28
2023/06/02 04:49:59;;;;;;;4.13;3.83;;;;;;;;;;4996607;28;20045;-26
2023/06/02 04:52:25;;;;;;;4.05;3.63;;;;;;;;;;4996748;28;20027;-28
2023/06/02 04:54:51;;;;;;;4.93;3.97;;;;;;;;;;4996692;28;20033;-26
2023/06/02 04:57:17;;;;;;;8.63;3.53;;;;;;;;;;4996456;28;20033;-25
2023/06/02 04:59:44;;;;;;;3.90;3.50;;;;;;;;;;4996559;28;20033;-25
2023/06/02 05:02:10;;;;;;;6.82;3.67;;;;;;;;;;4996599;28;20018;-27
2023/06/02 05:04:36;;;;;;;4.88;3.60;;;;;;;;;;4995829;28;20050;-31
2023/06/02 05:07:04;;;;;;;6.50;3.80;;;;;;;;;;4996246;28;20030;-26
2023/06/02 05:09:30;;;;;;;5.50;3.63;;;;;;;;;;4996482;28;20034;-27
2023/06/02 05:11:57;;;;;;;8.75;4.13;;;;;;;;;;4996223;28;20057;-27
2023/06/02 05:14:23;;;;;;;8.82;3.85;;;;;;;;;;4996506;28;20030;-26
2023/06/02 05:16:49;;;;;;;9.10;3.65;;;;;;;;;;4997013;28;20101;-25
2023/06/02 05:19:15;;;;;;;6.45;3.45;;;;;;;;;;4995673;28;20034;-27
2023/06/02 05:21:41;;;;;;;8.05;3.80;;;;;;;;;;4996154;28;20029;-27
2023/06/02 05:24:08;;;;;;;9.23;3.92;;;;;;;;;;4996149;28;20062;-26
2023/06/02 05:26:34;;;;;;;6.43;5.10;;;;;;;;;;4996402;28;20022;-24
2023/06/02 05:29:00;;;;;;;8.40;3.47;;;;;;;;;;4996215;28;20023;-28
2023/06/02 05:31:26;;;;;;;6.90;3.83;;;;;;;;;;4979043;28;20026;-26
2023/06/02 05:33:52;;;;;;;6.28;3.88;;;;;;;;;;4995845;28;20046;-28
2023/06/02 05:36:18;;;;;;;5.97;3.92;;;;;;;;;;4978706;28;20458;-24
2023/06/02 05:38:45;;;;;;;7.05;4.72;;;;;;;;;;4995760;28;20054;-27
2023/06/02 05:41:11;;;;;;;5.25;3.70;;;;;;;;;;4995754;28;20468;-27
2023/06/02 05:43:37;;;;;;;9.70;4.32;;;;;;;;;;4996009;28;20026;-24
2023/06/02 05:46:03;;;;;;;13.48;3.90;;;;;;;;;;4995742;28;20370;-25
2023/06/02 05:48:30;;;;;;;5.43;3.83;;;;;;;;;;4995968;28;20049;-23
2023/06/02 05:50:56;;;;;;;4.75;3.88;;;;;;;;;;4978405;28;20026;-24
2023/06/02 05:53:22;;;;;;;7.15;3.58;;;;;;;;;;4995833;28;20057;-26
2023/06/02 05:55:48;;;;;;;5.75;3.97;;;;;;;;;;4995638;28;20030;-26
2023/06/02 05:58:14;;;;;;;6.95;4.68;;;;;;;;;;4995696;28;20025;-25
2023/06/02 06:00:40;;;;;;;7.45;3.92;;;;;;;;;;4995551;28;20419;-26
2023/06/02 06:03:07;;;;;;;9.63;3.47;;;;;;;;;;4978016;28;20037;-26
2023/06/02 06:05:33;;;;;;;13.55;4.32;;;;;;;;;;4995781;28;20054;-25
2023/06/02 06:07:59;;;;;;;17.23;4.00;;;;;;;;;;4995506;28;20338;-23
2023/06/02 06:10:25;;;;;;;12.55;4.53;;;;;;;;;;4995398;28;20461;-25
2023/06/02 06:12:51;;;;;;;11.57;3.45;;;;;;;;;;4995517;28;20030;-27
2023/06/02 06:15:17;;;;;;;10.30;5.20;;;;;;;;;;4995533;28;20351;-27
2023/06/02 06:17:50;;;;;;;7.22;3.72;;;;;;;;;;4995343;28;20067;-26
2023/06/02 06:20:17;;;;;;;13.00;5.03;;;;;;;;;;4995548;28;20398;-29
2023/06/02 06:22:43;;;;;;;7.32;4.38;;;;;;;;;;4977988;28;20050;-26
2023/06/02 06:25:13;;;;;;;6.70;3.45;;;;;;;;;;4978132;28;20315;-24
2023/06/02 06:27:39;;;;;;;13.50;4.22;;;;;;;;;;4995373;28;20031;-25
2023/06/02 06:30:06;;;;;;;4.50;3.45;;;;;;;;;;4995088;28;20038;-24
2023/06/02 06:32:32;;;;;;;6.03;3.80;;;;;;;;;;4995063;28;20065;-23
2023/06/02 06:35:00;;;;;;;7.07;3.47;;;;;;;;;;4995030;28;20019;-26
2023/06/02 06:37:28;;;;;;;7.55;3.53;;;;;;;;;;4995293;28;20034;-26
2023/06/02 06:39:54;;;;;;;6.65;3.58;;;;;;;;;;4994999;28;20061;-27
2023/06/02 06:42:22;;;;;;;6.65;3.05;;;;;;;;;;4977809;28;20450;-25
2023/06/02 06:44:48;;;;;;;17.30;3.50;;;;;;;;;;4994956;28;20038;-25
2023/06/02 06:47:14;;;;;;;6.40;4.00;;;;;;;;;;4994942;28;20038;-26
2023/06/02 06:49:40;;;;;;;12.43;3.17;;;;;;;;;;4994816;28;20027;-24
2023/06/02 06:52:07;;;;;;;12.23;4.43;;;;;;;;;;4994992;28;20105;-24
2023/06/02 06:54:34;;;;;;;10.95;3.95;;;;;;;;;;4994676;28;20058;-23
2023/06/02 06:57:00;;;;;;;5.60;4.30;;;;;;;;;;4994731;28;20042;-25
2023/06/02 06:59:26;;;;;;;5.45;3.83;;;;;;;;;;4994777;28;20027;-27
2023/06/02 07:01:52;;;;;;;10.40;4.00;;;;;;;;;;4994801;28;20097;-26
2023/06/02 07:04:18;;;;;;;4.20;2.95;;;;;;;;;;4994395;28;20353;-27
2023/06/02 07:06:44;;;;;;;10.73;3.75;;;;;;;;;;4994893;28;20057;-26
2023/06/02 07:09:11;;;;;;;9.80;3.78;;;;;;;;;;4994803;28;20057;-25
2023/06/02 07:11:37;;;;;;;5.13;4.13;;;;;;;;;;4994948;28;20106;-25
2023/06/02 07:14:04;;;;;;;7.57;3.22;;;;;;;;;;4994956;28;20023;-24
2023/06/02 07:16:31;;;;;;;9.93;3.65;;;;;;;;;;4994844;28;20026;-25
2023/06/02 07:18:57;;;;;;;6.13;3.58;;;;;;;;;;4995030;28;20350;-26
2023/06/02 07:21:23;;;;;;;9.95;4.07;;;;;;;;;;4995210;28;20041;-24
2023/06/02 07:23:49;;;;;;;8.60;3.55;;;;;;;;;;4994867;28;20019;-25
2023/06/02 07:26:15;;;;;;;4.38;3.95;;;;;;;;;;4994878;28;20037;-28
2023/06/02 07:28:42;;;;;;;7.80;4.38;;;;;;;;;;4994936;28;20542;-26
2023/06/02 07:31:08;;;;;;;10.27;3.40;;;;;;;;;;4977480;28;20189;-29
2023/06/02 07:33:34;;;;;;;5.40;4.47;;;;;;;;;;4994535;28;20030;-28
2023/06/02 07:36:00;;;;;;;7.75;4.43;;;;;;;;;;4994427;28;20043;-25
2023/06/02 07:38:27;;;;;;;8.45;4.65;;;;;;;;;;4994601;28;20449;-27
2023/06/02 07:40:53;;;;;;;12.02;4.15;;;;;;;;;;4994806;28;20022;-24
2023/06/02 07:43:19;;;;;;;10.23;4.07;;;;;;;;;;4997668;28;20023;-24
2023/06/02 07:45:45;;;;;;;4.22;3.60;;;;;;;;;;4997960;28;20432;-36
2023/06/02 07:48:11;;;;;;;10.35;4.50;;;;;;;;;;4997909;28;20469;-25
2023/06/02 07:50:37;;;;;;;8.07;3.70;;;;;;;;;;4997866;28;20030;-26
2023/06/02 07:53:04;;;;;;;13.02;4.03;;;;;;;;;;4997710;28;20034;-25
2023/06/02 07:55:30;;;;;;;8.88;3.80;;;;;;;;;;4997870;28;20065;-24
2023/06/02 07:57:56;;;;;;;10.10;4.20;;;;;;;;;;4997792;28;20101;-26
2023/06/02 08:00:22;;;;;;;4.03;3.60;;;;;;;;;;4997707;28;20062;-24
2023/06/02 08:02:49;;;;;;;11.07;4.30;;;;;;;;;;4964593;28;20030;-28
2023/06/02 08:05:16;;;;;;;12.15;4.68;;;;;;;;;;4997454;28;20061;-26
2023/06/02 08:07:42;;;;;;;9.38;4.20;;;;;;;;;;4998026;28;20350;-26
2023/06/02 08:10:08;;;;;;;7.90;3.72;;;;;;;;;;4997571;28;20030;-26
2023/06/02 08:12:35;;;;;;;7.57;3.72;;;;;;;;;;4980293;28;20117;-27
2023/06/02 08:15:01;;;;;;;8.45;3.40;;;;;;;;;;4997723;28;20026;-28
2023/06/02 08:17:30;;;;;;;8.18;4.47;;;;;;;;;;4997794;28;20437;-24
2023/06/02 08:19:57;;;;;;;17.90;3.95;;;;;;;;;;4997528;28;20361;-26
2023/06/02 08:22:27;;;;;;;7.75;4.00;;;;;;;;;;4980195;28;20023;-27
2023/06/02 08:24:56;;;;;;;13.07;5.38;;;;;;;;;;4997466;28;20033;-25
2023/06/02 08:27:23;;;;;;;6.30;3.90;;;;;;;;;;4997621;28;20035;-25
2023/06/02 08:29:50;;;;;;;12.68;4.60;;;;;;;;;;4997675;28;20501;-24
2023/06/02 08:32:20;;;;;;;12.48;3.92;;;;;;;;;;4997179;28;20041;-26
2023/06/02 08:34:47;;;;;;;8.85;3.92;;;;;;;;;;4979947;28;20029;-26
2023/06/02 08:37:16;;;;;;;8.68;4.35;;;;;;;;;;4997357;28;20026;-27
2023/06/02 08:39:46;;;;;;;8.05;3.72;;;;;;;;;;4997329;28;20075;-26
2023/06/02 08:42:13;;;;;;;11.70;4.70;;;;;;;;;;4997337;28;20054;-27
2023/06/02 08:44:41;;;;;;;4.28;3.55;;;;;;;;;;4997030;28;20026;-27
2023/06/02 08:47:18;;;;;;;7.63;4.20;;;;;;;;;;4997439;28;20027;-25
2023/06/02 08:49:48;;;;;;;11.20;5.10;;;;;;;;;;4997264;28;20096;-23
2023/06/02 08:52:22;;;;;;;8.18;3.95;;;;;;;;;;4996903;28;20026;-25
2023/06/02 08:54:48;;;;;;;14.32;3.85;;;;;;;;;;4995896;28;20065;-25
2023/06/02 08:57:16;;;;;;;9.15;3.75;;;;;;;;;;4997046;28;20026;-25
2023/06/02 08:59:43;;;;;;;12.68;3.75;;;;;;;;;;4996733;28;20018;-24
2023/06/02 09:02:09;;;;;;;6.85;3.40;;;;;;;;;;4979375;28;20036;-23
2023/06/02 09:04:35;;;;;;;14.10;3.83;;;;;;;;;;4976056;28;20051;-25
2023/06/02 09:07:13;;;;;;;6.35;3.83;;;;;;;;;;4977473;28;20105;-27
2023/06/02 09:09:44;;;;;;;10.73;4.35;;;;;;;;;;4977166;28;20343;-25
2023/06/02 09:12:10;;;;;;;13.70;3.97;;;;;;;;;;4977258;28;20105;-26
2023/06/02 09:14:37;;;;;;;6.72;4.25;;;;;;;;;;4976897;28;20054;-27
2023/06/02 09:17:04;;;;;;;10.98;4.13;;;;;;;;;;4975933;28;20023;-25
2023/06/02 09:19:51;;;;;;;8.23;3.95;;;;;;;;;;4975912;28;20031;-26
2023/06/02 09:22:17;;;;;;;10.27;3.78;;;;;;;;;;4977021;28;20027;-27
2023/06/02 09:24:43;;;;;;;8.02;3.63;;;;;;;;;;4976655;28;20050;-28
2023/06/02 09:27:13;;;;;;;9.90;4.78;;;;;;;;;;4976627;28;20061;-27
2023/06/02 09:29:39;;;;;;;9.90;3.85;;;;;;;;;;4976488;28;20027;-28
2023/06/02 09:32:11;;;;;;;5.55;3.63;;;;;;;;;;4976578;28;20030;-25
2023/06/02 09:34:38;;;;;;;3.60;3.08;;;;;;;;;;4976446;28;20043;-27
2023/06/02 09:37:10;;;;;;;4.47;3.45;;;;;;;;;;4959254;28;20598;-29
2023/06/02 09:39:43;;;;;;;15.25;6.05;;;;;;;;;;4976282;28;20034;-25
2023/06/02 09:42:17;;;;;;;11.73;4.00;;;;;;;;;;4975002;28;20370;-24
2023/06/02 09:45:02;;;;;;;21.40;5.43;;;;;;;;;;4976393;28;20517;-26
2023/06/02 09:47:29;;;;;;;11.07;3.85;;;;;;;;;;4976100;28;20034;-24
2023/06/02 09:49:55;;;;;;;16.98;4.75;;;;;;;;;;4976081;28;20026;-24
2023/06/02 09:52:21;;;;;;;16.90;4.57;;;;;;;;;;4974860;28;20027;-24
2023/06/02 09:54:48;;;;;;;12.02;4.40;;;;;;;;;;4975958;28;20027;-28
2023/06/02 09:57:15;;;;;;;13.93;4.57;;;;;;;;;;4976287;28;20446;-25
2023/06/02 09:59:42;;;;;;;8.75;4.82;;;;;;;;;;4975893;28;20027;-27
2023/06/02 10:02:09;;;;;;;10.93;4.30;;;;;;;;;;4976184;28;20019;-27
2023/06/02 10:04:35;;;;;;;9.23;4.63;;;;;;;;;;4974416;28;20057;-27
2023/06/02 10:07:13;;;;;;;14.48;4.03;;;;;;;;;;4976177;28;20038;-26
2023/06/02 10:09:44;;;;;;;12.52;4.25;;;;;;;;;;4974963;28;20062;-25
2023/06/02 10:12:15;;;;;;;10.20;3.80;;;;;;;;;;4976130;28;20100;-28
2023/06/02 10:14:50;;;;;;;12.52;4.22;;;;;;;;;;4975992;28;20033;-26
2023/06/02 10:17:25;;;;;;;18.63;4.88;;;;;;;;;;4975755;28;20029;-25
2023/06/02 10:19:58;;;;;;;20.95;3.80;;;;;;;;;;4975410;28;20061;-23
2023/06/02 10:22:37;;;;;;;8.95;4.20;;;;;;;;;;4975742;28;20035;-25
2023/06/02 10:25:11;;;;;;;12.52;4.40;;;;;;;;;;4974687;28;20023;-24
2023/06/02 10:27:38;;;;;;;9.57;4.40;;;;;;;;;;4974323;28;20034;-27
2023/06/02 10:30:05;;;;;;;12.07;4.55;;;;;;;;;;4975431;28;20035;-23
2023/06/02 10:32:42;;;;;;;11.63;4.53;;;;;;;;;;4975531;28;20030;-26
2023/06/02 10:35:09;;;;;;;5.93;3.90;;;;;;;;;;4975512;28;20093;-26
2023/06/02 10:37:37;;;;;;;10.77;4.20;;;;;;;;;;4975580;28;20102;-26
2023/06/02 10:40:04;;;;;;;8.30;4.00;;;;;;;;;;4975657;28;20019;-25
2023/06/02 10:42:31;;;;;;;10.32;4.82;;;;;;;;;;4975257;28;20086;-26
2023/06/02 10:45:16;;;;;;;9.07;4.20;;;;;;;;;;4975899;28;20027;-28
2023/06/02 10:47:42;;;;;;;8.95;3.88;;;;;;;;;;4975641;28;20458;-24
2023/06/02 10:50:09;;;;;;;7.43;3.70;;;;;;;;;;4975143;28;20054;-24
2023/06/02 10:52:54;;;;;;;10.88;4.32;;;;;;;;;;4975429;28;20077;-25
2023/06/02 10:55:20;;;;;;;7.38;4.75;;;;;;;;;;4975135;28;20034;-26
2023/06/02 10:58:03;;;;;;;7.97;3.47;;;;;;;;;;4975232;28;20106;-24
2023/06/02 11:00:44;;;;;;;8.07;3.80;;;;;;;;;;4975426;28;20109;-25
2023/06/02 11:03:22;;;;;;;7.72;3.63;;;;;;;;;;4976141;28;20042;-25
2023/06/02 11:05:54;;;;;;;9.35;3.70;;;;;;;;;;4977294;28;20045;-26
2023/06/02 11:08:23;;;;;;;10.93;4.07;;;;;;;;;;4994914;28;20034;-24
2023/06/02 11:10:56;;;;;;;12.82;5.28;;;;;;;;;;4994596;28;20054;-26
2023/06/02 11:13:23;;;;;;;6.88;4.00;;;;;;;;;;4977562;28;20481;-25
2023/06/02 11:15:58;;;;;;;7.03;3.92;;;;;;;;;;4994454;28;20033;-24
2023/06/02 11:18:31;;;;;;;13.18;4.22;;;;;;;;;;4998198;28;20458;-26
2023/06/02 11:21:04;;;;;;;11.65;3.88;;;;;;;;;;4980998;28;20057;-28
2023/06/02 11:23:31;;;;;;;6.63;3.65;;;;;;;;;;4981072;28;20046;-24
2023/06/02 11:26:07;;;;;;;8.73;3.65;;;;;;;;;;4998117;28;20041;-25
2023/06/02 11:28:33;;;;;;;13.05;4.43;;;;;;;;;;4998355;28;20026;-25
2023/06/02 11:31:09;;;;;;;6.45;3.88;;;;;;;;;;4998005;28;20022;-26
2023/06/02 11:33:39;;;;;;;9.40;4.68;;;;;;;;;;4980802;28;20036;-24
2023/06/02 11:36:13;;;;;;;7.35;4.05;;;;;;;;;;4997928;28;20060;-23
2023/06/02 11:38:40;;;;;;;8.90;3.72;;;;;;;;;;4980466;28;20030;-27
2023/06/02 11:41:09;;;;;;;11.40;3.33;;;;;;;;;;4997832;28;20097;-25
2023/06/02 11:43:36;;;;;;;11.88;3.80;;;;;;;;;;4997809;28;20496;-25
2023/06/02 11:46:09;;;;;;;12.00;4.47;;;;;;;;;;4997636;28;20030;-26
2023/06/02 11:48:38;;;;;;;8.35;4.25;;;;;;;;;;4997692;28;20089;-24
2023/06/02 11:51:08;;;;;;;7.55;4.30;;;;;;;;;;4980432;28;20113;-24
2023/06/02 11:53:34;;;;;;;8.25;3.58;;;;;;;;;;4997758;28;20377;-25
2023/06/02 11:56:01;;;;;;;8.15;4.47;;;;;;;;;;4980325;28;20022;-24
2023/06/02 11:58:28;;;;;;;12.45;4.50;;;;;;;;;;4997402;28;20026;-23
2023/06/02 12:01:06;;;;;;;8.98;4.78;;;;;;;;;;4997563;28;20026;-26
2023/06/02 12:03:32;;;;;;;9.30;4.13;;;;;;;;;;4997435;28;20176;-25
2023/06/02 12:06:07;;;;;;;14.65;4.00;;;;;;;;;;4997710;28;20357;-24
2023/06/02 12:08:33;;;;;;;9.65;4.03;;;;;;;;;;4997746;28;20041;-26
2023/06/02 12:11:00;;;;;;;8.25;5.43;;;;;;;;;;4997356;28;20037;-26
2023/06/02 12:13:30;;;;;;;10.80;4.00;;;;;;;;;;4997205;28;20442;-27
2023/06/02 12:15:56;;;;;;;9.45;4.50;;;;;;;;;;4997081;28;20072;-25
2023/06/02 12:18:31;;;;;;;17.05;4.15;;;;;;;;;;4997534;28;20027;-24
2023/06/02 12:20:59;;;;;;;12.13;3.88;;;;;;;;;;4997727;28;20030;-25
2023/06/02 12:23:42;;;;;;;11.90;3.88;;;;;;;;;;4997392;28;20025;-29
2023/06/02 12:26:08;;;;;;;8.77;4.20;;;;;;;;;;4997271;28;20105;-25
2023/06/02 12:28:34;;;;;;;14.75;4.13;;;;;;;;;;4979821;28;20041;-24
2023/06/02 12:31:00;;;;;;;9.13;3.50;;;;;;;;;;4997002;28;20324;-27
2023/06/02 12:33:26;;;;;;;17.13;4.63;;;;;;;;;;4997035;28;20022;-24
2023/06/02 12:35:52;;;;;;;6.53;3.53;;;;;;;;;;4996962;28;20037;-24
2023/06/02 12:38:19;;;;;;;12.27;4.10;;;;;;;;;;4996910;28;20105;-24
2023/06/02 12:40:45;;;;;;;14.05;4.72;;;;;;;;;;4997202;28;20068;-25
2023/06/02 12:43:11;;;;;;;13.43;4.20;;;;;;;;;;4996777;28;20026;-26
2023/06/02 12:45:38;;;;;;;10.90;4.90;;;;;;;;;;4996752;28;20386;-25
2023/06/02 12:48:05;;;;;;;14.43;4.85;;;;;;;;;;4996905;28;20022;-27
2023/06/02 12:50:31;;;;;;;11.63;4.70;;;;;;;;;;4979650;28;20405;-28
2023/06/02 12:52:57;;;;;;;8.13;4.68;;;;;;;;;;4980094;28;20026;-26
2023/06/02 12:55:24;;;;;;;19.17;5.30;;;;;;;;;;4996982;28;20018;-27
2023/06/02 12:57:50;;;;;;;15.05;4.25;;;;;;;;;;4996911;28;20109;-26
2023/06/02 13:00:17;;;;;;;6.30;3.85;;;;;;;;;;4996638;28;20080;-25
2023/06/02 13:02:44;;;;;;;11.60;5.05;;;;;;;;;;4996603;28;20019;-26
2023/06/02 13:05:11;;;;;;;8.65;4.18;;;;;;;;;;4996359;28;20046;-26
2023/06/02 13:07:38;;;;;;;10.50;3.85;;;;;;;;;;4996521;28;20579;-25
2023/06/02 13:10:05;;;;;;;15.45;6.07;;;;;;;;;;4996747;28;20045;-25
2023/06/02 13:12:31;;;;;;;8.18;4.47;;;;;;;;;;4979163;28;20022;-27
2023/06/02 13:15:00;;;;;;;13.68;3.70;;;;;;;;;;4996313;28;20058;-26
2023/06/02 13:17:27;;;;;;;7.97;3.88;;;;;;;;;;4996621;28;20088;-28
2023/06/02 13:19:53;;;;;;;7.97;4.22;;;;;;;;;;4996583;28;20089;-25
2023/06/02 13:22:20;;;;;;;9.10;4.35;;;;;;;;;;4996479;28;20358;-27
2023/06/02 13:24:47;;;;;;;8.43;5.00;;;;;;;;;;4996300;28;20061;-28
2023/06/02 13:27:15;;;;;;;10.40;3.75;;;;;;;;;;4996221;28;20061;-25
2023/06/02 13:29:42;;;;;;;7.10;3.47;;;;;;;;;;4996873;28;20062;-28
2023/06/02 13:32:08;;;;;;;9.35;4.40;;;;;;;;;;4996139;28;20382;-28
2023/06/02 13:34:34;;;;;;;17.77;4.25;;;;;;;;;;4978877;28;20034;-28
2023/06/02 13:37:01;;;;;;;11.50;4.07;;;;;;;;;;4996120;28;20018;-25
2023/06/02 13:39:27;;;;;;;8.77;3.80;;;;;;;;;;4995503;28;20022;-25
2023/06/02 13:41:53;;;;;;;11.77;3.83;;;;;;;;;;4995859;28;20029;-26
2023/06/02 13:44:20;;;;;;;8.77;4.50;;;;;;;;;;4995862;28;20023;-25
2023/06/02 13:46:47;;;;;;;9.30;4.65;;;;;;;;;;4978604;28;20449;-27
2023/06/02 13:49:16;;;;;;;9.20;4.40;;;;;;;;;;4995741;28;20030;-25
2023/06/02 13:51:49;;;;;;;8.55;3.80;;;;;;;;;;4995775;28;20019;-26
2023/06/02 13:54:18;;;;;;;11.98;4.72;;;;;;;;;;4995886;28;20023;-27
2023/06/02 13:56:46;;;;;;;10.30;3.95;;;;;;;;;;4995918;28;20038;-24
2023/06/02 13:59:13;;;;;;;11.68;4.28;;;;;;;;;;4995921;28;20022;-26
2023/06/02 14:01:40;;;;;;;10.75;3.90;;;;;;;;;;4995593;28;20118;-28
2023/06/02 14:04:09;;;;;;;14.30;4.93;;;;;;;;;;4978110;28;20057;-26
2023/06/02 14:06:36;;;;;;;11.10;3.47;;;;;;;;;;4995506;28;20030;-26
2023/06/02 14:09:06;;;;;;;13.18;3.75;;;;;;;;;;4995816;28;20030;-27
2023/06/02 14:11:33;;;;;;;12.82;5.63;;;;;;;;;;4995427;28;20046;-25
2023/06/02 14:13:59;;;;;;;11.60;4.22;;;;;;;;;;4995605;28;20022;-24
2023/06/02 14:16:25;;;;;;;10.18;3.67;;;;;;;;;;4978159;28;20030;-26
2023/06/02 14:18:51;;;;;;;8.82;3.90;;;;;;;;;;4995286;28;20022;-27
2023/06/02 14:21:18;;;;;;;9.95;4.20;;;;;;;;;;4995610;28;20038;-23
2023/06/02 14:23:45;;;;;;;11.43;4.20;;;;;;;;;;4995252;28;20100;-27
2023/06/02 14:26:11;;;;;;;9.18;3.97;;;;;;;;;;4995336;28;20041;-27
2023/06/02 14:28:37;;;;;;;12.88;3.60;;;;;;;;;;4995113;28;20027;-24
2023/06/02 14:31:03;;;;;;;12.02;4.57;;;;;;;;;;4995427;28;20026;-23
2023/06/02 14:33:29;;;;;;;7.75;4.07;;;;;;;;;;4995332;28;20033;-30
2023/06/02 14:35:55;;;;;;;7.07;4.40;;;;;;;;;;4995293;28;20045;-28
2023/06/02 14:38:21;;;;;;;6.40;3.63;;;;;;;;;;4995046;28;20104;-24
2023/06/02 14:40:48;;;;;;;10.52;4.22;;;;;;;;;;4995082;28;20027;-25